KEUG/EUG METAR and TAF weather

Enter ICAO airport designator
Station Type Date Time Source
KEUG METAR 2020/07/10 15:54 UTC NOAA

KEUG 101554Z 05003KT 10SM FEW010 OVC020 17/12 A3018 RMK AO2 SLP220 T01670122


Station Type Date Time Source
KEUG Decoded METAR 2020/07/10 15:54 UTC NOAA

MAHLON SWEET FIELD, OR, United States (KEUG) 44-08N 123-13W 114M
Jul 10, 2020 - 11:54 AM EDT / 2020.07.10 1554 UTC
Wind: from the NE (050 degrees) at 3 MPH (3 KT):0
Visibility: 10 mile(s):0
Sky conditions: overcast
Temperature: 62.1 F (16.7 C)
Dew Point: 54.0 F (12.2 C)
Relative Humidity: 74%
Pressure (altimeter): 30.18 in. Hg (1022 hPa)
ob: KEUG 101554Z 05003KT 10SM FEW010 OVC020 17/12 A3018 RMK AO2 SLP220 T01670122
cycle: 16

Station Type Date Time Source
KEUG TAF 2020/07/10 12:30 UTC NOAA

TAF KEUG 101129Z 1012/1112 00000KT P6SM BKN015 OVC040
FM101700 35004KT P6SM BKN025 OVC040
FM101900 35007KT P6SM SCT025 BKN040
FM102200 35007KT P6SM SCT040
FM111000 21003KT P6SM BKN025 OVC040

Example: see airport list